Terminal Aerodrome Forecast
Issued by NWS

Home | Current Version | Previous Version | Text Only | Print | Product List | Glossary Off
Versions: 1 2 3 4 5 6 7 8 9 10 11 12 13 14 15 16 17 18 19 20 21 22 23 24 25 26 27 28 29 30 31

598
FTUS43 KLOT 260520
TAFORD
TAF
KORD 260520Z 2606/2712 28008KT P6SM BKN250
     FM261000 21007KT P6SM BKN090
     FM261500 20016G24KT P6SM BKN060
     FM261800 23022G36KT P6SM FEW060
     FM262300 22014G24KT P6SM SCT250
     FM270100 21008KT P6SM BKN050=

USA.gov is the U.S. government's official web portal to all federal, state and local government web resources and services.